createdAt,value
2017-05-27T00:00:16.739Z,54.44
2017-05-27T00:02:44.312Z,54.18
2017-05-27T00:05:11.853Z,53.55
2017-05-27T00:07:39.429Z,53.31
2017-05-27T00:10:06.999Z,53.00
2017-05-27T00:12:34.589Z,53.17
2017-05-27T00:15:02.125Z,52.78
2017-05-27T00:17:29.705Z,52.88
2017-05-27T00:19:57.261Z,53.51
2017-05-27T00:22:24.893Z,53.36
2017-05-27T00:24:52.532Z,54.32
2017-05-27T00:27:20.069Z,54.48
2017-05-27T00:29:47.665Z,54.99
2017-05-27T00:32:15.219Z,55.74
2017-05-27T00:34:42.906Z,55.72
2017-05-27T00:37:10.483Z,56.46
2017-05-27T00:39:38.079Z,56.66
2017-05-27T00:42:05.639Z,56.80
2017-05-27T00:44:33.207Z,56.75
2017-05-27T00:47:00.813Z,56.86
2017-05-27T00:49:28.389Z,56.52
2017-05-27T00:51:56.032Z,55.49
2017-05-27T00:54:23.599Z,55.42
2017-05-27T00:56:51.215Z,55.35
2017-05-27T00:59:18.833Z,55.08
2017-05-27T01:01:46.461Z,54.51
2017-05-27T01:04:14.012Z,54.88
2017-05-27T01:06:41.564Z,55.24
2017-05-27T01:09:09.137Z,55.56
2017-05-27T01:11:36.678Z,55.79
2017-05-27T01:14:04.240Z,54.74
2017-05-27T01:16:31.825Z,54.40
2017-05-27T01:18:59.448Z,54.23
2017-05-27T01:21:26.991Z,53.65
2017-05-27T01:23:54.670Z,53.86
2017-05-27T01:26:22.191Z,53.89
2017-05-27T01:28:49.830Z,53.52
2017-05-27T01:31:17.368Z,53.70
2017-05-27T01:33:44.880Z,53.68
2017-05-27T01:36:12.508Z,53.59
2017-05-27T01:38:40.084Z,53.69
2017-05-27T01:41:07.691Z,53.44
2017-05-27T01:43:35.251Z,53.58
2017-05-27T01:46:02.789Z,53.56
2017-05-27T01:48:30.323Z,53.67
2017-05-27T01:50:57.921Z,53.57
2017-05-27T01:53:25.452Z,53.38
2017-05-27T01:55:53.005Z,53.76
2017-05-27T01:58:20.582Z,53.65
2017-05-27T02:00:48.108Z,53.99
2017-05-27T02:03:15.765Z,54.04
2017-05-27T02:05:43.459Z,53.97
2017-05-27T02:08:11.052Z,54.32
2017-05-27T02:10:38.637Z,53.94
2017-05-27T02:13:06.171Z,54.32
2017-05-27T02:15:33.841Z,53.99
2017-05-27T02:18:01.439Z,54.23
2017-05-27T02:20:28.980Z,54.30
2017-05-27T02:22:56.651Z,54.33
2017-05-27T02:25:24.196Z,54.41
2017-05-27T02:27:51.980Z,54.40
2017-05-27T02:30:19.644Z,54.44
2017-05-27T02:32:47.279Z,54.57
2017-05-27T02:35:14.802Z,54.66
2017-05-27T02:37:42.327Z,54.73
2017-05-27T02:40:09.925Z,55.07
2017-05-27T02:42:37.471Z,54.91
2017-05-27T02:45:05.075Z,55.46
2017-05-27T02:47:32.633Z,55.49
2017-05-27T02:50:00.172Z,56.00
2017-05-27T02:52:27.793Z,56.25
2017-05-27T02:54:55.346Z,55.64
2017-05-27T02:57:22.919Z,56.49
2017-05-27T02:59:50.487Z,56.39
2017-05-27T03:02:18.204Z,56.58
2017-05-27T03:04:45.735Z,56.99
2017-05-27T03:07:13.285Z,56.66
2017-05-27T03:09:40.916Z,56.74
2017-05-27T03:12:08.491Z,56.66
2017-05-27T03:14:36.056Z,57.71
2017-05-27T03:17:03.598Z,57.55
2017-05-27T03:19:31.434Z,57.19
2017-05-27T03:21:58.980Z,56.80
2017-05-27T03:24:26.511Z,56.84
2017-05-27T03:26:54.071Z,57.46
2017-05-27T03:29:21.613Z,57.32
2017-05-27T03:31:49.235Z,57.29
2017-05-27T03:34:16.779Z,57.68
2017-05-27T03:36:44.430Z,57.73
2017-05-27T03:39:11.981Z,57.63
2017-05-27T03:41:39.511Z,58.07
2017-05-27T03:44:07.079Z,58.60
2017-05-27T03:46:34.610Z,58.45
2017-05-27T03:49:02.174Z,58.33
2017-05-27T03:51:29.799Z,58.53
2017-05-27T03:53:57.374Z,58.63
2017-05-27T03:56:25.024Z,58.83
2017-05-27T03:58:52.596Z,59.04
2017-05-27T04:01:20.208Z,59.29
2017-05-27T04:03:47.747Z,59.03
2017-05-27T04:06:15.352Z,58.83
2017-05-27T04:08:42.888Z,59.02
2017-05-27T04:11:10.524Z,59.23
2017-05-27T04:13:38.052Z,59.26
2017-05-27T04:16:05.666Z,59.47
2017-05-27T04:18:33.212Z,59.20
2017-05-27T04:21:00.819Z,59.55
2017-05-27T04:23:28.367Z,59.63
2017-05-27T04:25:55.913Z,60.05
2017-05-27T04:28:23.476Z,60.21
2017-05-27T04:30:51.017Z,59.45
2017-05-27T04:33:18.931Z,59.62
2017-05-27T04:35:46.512Z,59.58
2017-05-27T04:38:14.061Z,59.76
2017-05-27T04:40:41.621Z,59.97
2017-05-27T04:43:09.152Z,59.78
2017-05-27T04:45:36.725Z,59.79
2017-05-27T04:48:04.322Z,59.60
2017-05-27T04:50:31.888Z,59.77
2017-05-27T04:52:59.425Z,59.56
2017-05-27T04:55:27.077Z,59.75
2017-05-27T04:57:54.747Z,59.63
2017-05-27T05:00:22.292Z,59.58
2017-05-27T05:02:49.821Z,59.83
2017-05-27T05:05:17.414Z,60.05
2017-05-27T05:07:44.965Z,59.95
2017-05-27T05:10:12.492Z,60.15
2017-05-27T05:12:40.084Z,60.10
2017-05-27T05:15:07.640Z,60.22
2017-05-27T05:17:35.209Z,60.31
2017-05-27T05:20:02.848Z,60.29
2017-05-27T05:22:30.497Z,60.49
2017-05-27T05:24:58.085Z,60.33
2017-05-27T05:27:25.684Z,60.07
2017-05-27T05:29:53.274Z,60.14
2017-05-27T05:32:20.844Z,59.91
2017-05-27T05:34:48.443Z,60.15
2017-05-27T05:37:16.005Z,60.20
2017-05-27T05:39:43.609Z,59.63
2017-05-27T05:42:11.236Z,59.62
2017-05-27T05:44:38.772Z,59.65
2017-05-27T05:47:06.438Z,59.20
2017-05-27T05:49:34.020Z,59.17
2017-05-27T05:52:01.603Z,58.64
2017-05-27T05:54:29.147Z,58.88
2017-05-27T05:56:56.681Z,58.65
2017-05-27T05:59:24.307Z,58.47
2017-05-27T06:01:51.869Z,58.18
2017-05-27T06:04:19.517Z,57.93
2017-05-27T06:06:47.131Z,57.59
2017-05-27T06:09:14.753Z,57.13
2017-05-27T06:11:42.292Z,57.04
2017-05-27T06:14:09.875Z,56.70
2017-05-27T06:16:37.427Z,56.65
2017-05-27T06:19:04.976Z,57.04
2017-05-27T06:21:32.531Z,56.45
2017-05-27T06:24:00.093Z,56.22
2017-05-27T06:26:27.727Z,56.08
2017-05-27T06:28:55.263Z,55.51
2017-05-27T06:31:22.809Z,55.51
2017-05-27T06:33:50.372Z,55.38
2017-05-27T06:36:17.907Z,55.11
2017-05-27T06:38:45.475Z,55.37
2017-05-27T06:41:13.003Z,54.52
2017-05-27T06:43:40.983Z,54.00
2017-05-27T06:46:08.617Z,53.45
2017-05-27T06:48:36.170Z,53.06
2017-05-27T06:51:03.812Z,52.97
2017-05-27T06:53:31.348Z,53.00
2017-05-27T06:58:25.709Z,52.77
2017-05-27T07:00:53.317Z,53.50
2017-05-27T07:03:20.852Z,53.13
2017-05-27T07:05:48.447Z,52.30
2017-05-27T07:08:15.982Z,51.97
2017-05-27T07:10:43.521Z,52.26
2017-05-27T07:13:11.124Z,52.52
2017-05-27T07:15:38.673Z,51.81
2017-05-27T07:18:06.243Z,52.25
2017-05-27T07:20:33.834Z,51.75
2017-05-27T07:23:01.413Z,52.74
2017-05-27T07:25:28.946Z,52.39
2017-05-27T07:27:56.475Z,52.05
2017-05-27T07:30:24.036Z,51.80
2017-05-27T07:32:51.585Z,52.09
2017-05-27T07:35:19.255Z,50.67
2017-05-27T07:37:46.850Z,51.06
2017-05-27T07:40:14.519Z,50.26
2017-05-27T07:42:42.111Z,50.36
2017-05-27T07:45:09.654Z,50.03
2017-05-27T07:47:37.272Z,50.60
2017-05-27T07:50:04.851Z,50.34
2017-05-27T07:52:32.488Z,49.29
2017-05-27T07:55:00.014Z,49.28
2017-05-27T07:57:27.599Z,49.69
2017-05-27T07:59:55.160Z,49.80
2017-05-27T08:02:22.713Z,49.50
2017-05-27T08:04:51.960Z,49.40
2017-05-27T08:07:19.551Z,49.37
2017-05-27T08:09:47.125Z,49.43
2017-05-27T08:12:14.804Z,49.47
2017-05-27T08:14:42.353Z,50.43
2017-05-27T08:17:09.954Z,49.45
2017-05-27T08:19:37.716Z,48.72
2017-05-27T08:22:05.330Z,48.76
2017-05-27T08:24:32.964Z,48.92
2017-05-27T08:27:00.500Z,48.59
2017-05-27T08:29:28.125Z,48.16
2017-05-27T08:31:55.693Z,46.61
2017-05-27T08:34:28.927Z,48.27
2017-05-27T08:36:56.488Z,47.51
2017-05-27T08:39:24.108Z,45.89
2017-05-27T08:41:51.663Z,46.24
2017-05-27T08:44:19.197Z,45.53
2017-05-27T08:46:46.744Z,44.74
2017-05-27T08:49:14.288Z,44.72
2017-05-27T08:51:41.864Z,45.15
2017-05-27T08:54:09.395Z,44.17
2017-05-27T08:56:37.202Z,44.58
2017-05-27T08:59:04.822Z,44.76
2017-05-27T09:01:32.357Z,44.34
2017-05-27T09:04:00.366Z,43.87
2017-05-27T09:06:27.904Z,43.78
2017-05-27T09:08:55.499Z,43.81
2017-05-27T09:11:23.034Z,42.79
2017-05-27T09:13:50.583Z,43.79
2017-05-27T09:16:18.143Z,42.43
2017-05-27T09:18:45.716Z,42.96
2017-05-27T09:21:13.299Z,43.57
2017-05-27T09:23:40.840Z,41.96
2017-05-27T09:26:08.467Z,41.08
2017-05-27T09:28:36.050Z,40.77
2017-05-27T09:31:03.616Z,41.04
2017-05-27T09:33:31.218Z,40.78
2017-05-27T09:35:58.740Z,40.52
2017-05-27T09:38:26.359Z,39.80
2017-05-27T09:40:53.913Z,39.51
2017-05-27T09:43:21.449Z,38.78
2017-05-27T09:45:49.112Z,37.98
2017-05-27T09:48:16.688Z,38.12
2017-05-27T09:50:44.341Z,38.60
2017-05-27T09:53:11.867Z,37.18
2017-05-27T09:55:39.417Z,37.36
2017-05-27T09:58:07.024Z,37.11
2017-05-27T10:00:34.557Z,36.75
2017-05-27T10:03:02.196Z,36.75
2017-05-27T10:05:29.735Z,37.11
2017-05-27T10:07:57.332Z,37.39
2017-05-27T10:10:24.886Z,35.74
2017-05-27T10:12:52.465Z,36.80
2017-05-27T10:15:20.009Z,34.93
2017-05-27T10:17:47.535Z,36.00
2017-05-27T10:20:15.104Z,36.76
2017-05-27T10:22:42.744Z,34.77
2017-05-27T10:25:18.216Z,35.75
2017-05-27T10:27:45.877Z,35.42
2017-05-27T10:30:13.462Z,34.58
2017-05-27T10:32:41.069Z,34.51
2017-05-27T10:35:08.668Z,35.03
2017-05-27T10:37:36.242Z,33.79
2017-05-27T10:40:03.867Z,34.59
2017-05-27T10:42:31.419Z,33.83
2017-05-27T10:44:58.952Z,33.29
2017-05-27T10:47:26.545Z,33.88
2017-05-27T10:49:54.100Z,33.97
2017-05-27T10:52:21.638Z,33.30
2017-05-27T10:54:49.228Z,33.96
2017-05-27T10:57:16.777Z,33.14
2017-05-27T10:59:44.368Z,32.81
2017-05-27T11:02:11.895Z,32.88
2017-05-27T11:04:39.539Z,32.34
2017-05-27T11:07:07.095Z,32.83
2017-05-27T11:09:34.724Z,32.84
2017-05-27T11:12:03.565Z,32.92
2017-05-27T11:14:31.104Z,33.47
2017-05-27T11:16:58.791Z,34.07
2017-05-27T11:19:27.632Z,33.12
2017-05-27T11:21:55.257Z,32.61
2017-05-27T11:24:22.780Z,32.60
2017-05-27T11:26:50.633Z,32.65
2017-05-27T11:29:18.171Z,32.03
2017-05-27T11:31:46.074Z,32.48
2017-05-27T11:34:13.635Z,32.28
2017-05-27T11:36:41.170Z,32.61
2017-05-27T11:39:08.816Z,32.56
2017-05-27T11:41:36.439Z,32.66
2017-05-27T11:44:04.682Z,32.84
2017-05-27T11:46:32.628Z,32.35
2017-05-27T11:49:00.501Z,32.52
2017-05-27T12:54:51.856Z,28.89
2017-05-27T12:57:19.364Z,29.50
2017-05-27T12:59:46.977Z,29.97
2017-05-27T13:02:14.540Z,31.68
2017-05-27T13:04:42.061Z,30.02
2017-05-27T13:07:09.650Z,29.93
2017-05-27T13:09:37.179Z,29.76
2017-05-27T13:12:04.703Z,29.36
2017-05-27T13:14:32.307Z,29.75
2017-05-27T13:16:59.859Z,29.29
2017-05-27T13:19:27.445Z,29.61
2017-05-27T13:21:54.980Z,28.85
2017-05-27T13:24:22.552Z,31.04
2017-05-27T13:26:50.129Z,29.34
2017-05-27T13:29:17.724Z,29.19
2017-05-27T13:31:45.327Z,29.04
2017-05-27T13:34:12.916Z,29.15
2017-05-27T13:36:40.529Z,29.18
2017-05-27T13:39:08.216Z,29.16
2017-05-27T13:41:35.883Z,29.12
2017-05-27T13:44:03.466Z,28.06
2017-05-27T13:46:31.087Z,27.18
2017-05-27T13:48:58.668Z,27.09
2017-05-27T13:51:26.213Z,28.22
2017-05-27T13:53:53.737Z,28.32
2017-05-27T13:56:21.290Z,27.73
2017-05-27T13:58:48.811Z,27.98
2017-05-27T14:01:16.355Z,27.89
2017-05-27T14:03:43.900Z,26.85
2017-05-27T14:06:11.522Z,25.58
2017-05-27T14:08:39.131Z,25.84
2017-05-27T14:11:06.745Z,26.24
2017-05-27T14:13:34.405Z,23.62
2017-05-27T14:16:01.955Z,23.85
2017-05-27T14:18:29.585Z,23.88
2017-05-27T14:20:57.104Z,23.92
2017-05-27T14:23:24.675Z,23.67
2017-05-27T14:25:52.207Z,23.53
2017-05-27T14:28:20.296Z,22.98
2017-05-27T14:30:47.860Z,22.62
2017-05-27T14:33:15.391Z,22.72
2017-05-27T14:35:42.981Z,23.05
2017-05-27T14:38:10.538Z,22.41
2017-05-27T14:40:38.127Z,22.62
2017-05-27T14:43:05.656Z,21.69
2017-05-27T14:45:33.167Z,22.47
2017-05-27T14:48:00.742Z,21.85
2017-05-27T14:50:28.281Z,22.36
2017-05-27T14:52:55.913Z,22.18
2017-05-27T14:55:23.448Z,22.09
2017-05-27T14:57:51.000Z,22.12
2017-05-27T15:00:18.578Z,22.20
2017-05-27T15:02:46.115Z,22.86
2017-05-27T15:05:13.676Z,22.15
2017-05-27T15:07:41.193Z,22.21
2017-05-27T15:10:08.948Z,21.91
2017-05-27T15:12:36.527Z,21.54
2017-05-27T15:15:04.060Z,21.91
2017-05-27T15:17:31.619Z,21.95
2017-05-27T15:19:59.165Z,21.61
2017-05-27T15:22:26.736Z,22.52
2017-05-27T15:24:54.272Z,21.65
2017-05-27T15:27:21.851Z,22.80
2017-05-27T15:29:49.375Z,21.91
2017-05-27T15:32:16.923Z,21.34
2017-05-27T15:34:44.491Z,21.58
2017-05-27T15:37:12.068Z,21.02
2017-05-27T15:39:39.624Z,21.94
2017-05-27T15:42:07.159Z,21.42
2017-05-27T15:44:34.756Z,21.16
2017-05-27T15:47:02.296Z,21.25
2017-05-27T15:49:29.823Z,23.54
2017-05-27T15:51:57.393Z,22.69
2017-05-27T15:54:24.920Z,22.04
2017-05-27T15:56:52.499Z,22.47
2017-05-27T15:59:20.051Z,21.80
2017-05-27T16:01:47.590Z,22.55
2017-05-27T16:04:15.155Z,22.33
2017-05-27T16:06:42.679Z,22.29
2017-05-27T16:09:10.255Z,22.42
2017-05-27T16:11:37.799Z,22.81
2017-05-27T16:14:05.703Z,22.55
2017-05-27T16:16:33.271Z,22.61
2017-05-27T16:19:00.773Z,23.01
2017-05-27T16:21:28.359Z,23.41
2017-05-27T16:23:55.872Z,22.97
2017-05-27T16:26:23.456Z,22.58
2017-05-27T16:28:50.969Z,22.76
2017-05-27T16:31:18.535Z,23.19
2017-05-27T16:33:46.099Z,23.54
2017-05-27T16:36:13.668Z,23.58
2017-05-27T16:38:41.188Z,23.43
2017-05-27T16:41:08.716Z,22.73
2017-05-27T16:43:36.352Z,23.00
2017-05-27T16:46:03.956Z,23.28
2017-05-27T16:48:31.531Z,23.31
2017-05-27T16:50:59.060Z,23.42
2017-05-27T16:53:26.650Z,23.54
2017-05-27T16:55:54.192Z,23.67
2017-05-27T16:58:21.721Z,23.25
2017-05-27T17:00:49.277Z,23.63
2017-05-27T17:03:16.848Z,23.80
2017-05-27T17:05:44.514Z,24.26
2017-05-27T17:08:12.067Z,23.89
2017-05-27T17:10:39.652Z,23.71
2017-05-27T17:13:07.199Z,23.77
2017-05-27T17:15:34.854Z,23.88
2017-05-27T17:18:02.403Z,23.91
2017-05-27T17:20:29.932Z,23.98
2017-05-27T17:22:57.476Z,24.48
2017-05-27T17:25:25.018Z,24.02
2017-05-27T17:27:52.581Z,24.25
2017-05-27T17:30:20.155Z,24.45
2017-05-27T17:32:47.731Z,24.22
2017-05-27T17:35:15.277Z,29.75
2017-05-27T17:37:42.817Z,28.79
2017-05-27T17:40:10.374Z,29.69
2017-05-27T17:42:37.913Z,30.34
2017-05-27T17:45:05.477Z,26.19
2017-05-27T17:47:33.015Z,25.71
2017-05-27T17:50:00.568Z,25.50
2017-05-27T17:52:28.121Z,24.64
2017-05-27T17:54:55.753Z,25.23
2017-05-27T17:57:23.287Z,24.67
2017-05-27T17:59:50.821Z,24.37
2017-05-27T18:02:18.412Z,24.78
2017-05-27T18:04:45.975Z,25.18
2017-05-27T18:07:13.515Z,25.52
2017-05-27T18:09:41.074Z,25.20
2017-05-27T18:12:08.640Z,25.00
2017-05-27T18:14:36.247Z,24.97
2017-05-27T18:17:03.772Z,25.40
2017-05-27T18:19:31.297Z,27.49
2017-05-27T18:21:58.864Z,26.31
2017-05-27T18:24:26.381Z,28.53
2017-05-27T18:26:53.925Z,26.58
2017-05-27T18:29:21.527Z,28.06
2017-05-27T18:31:49.148Z,26.43
2017-05-27T18:34:16.833Z,26.85
2017-05-27T18:36:44.416Z,26.81
2017-05-27T18:39:11.952Z,27.14
2017-05-27T18:41:39.587Z,27.52
2017-05-27T18:44:07.117Z,27.20
2017-05-27T18:46:34.697Z,27.37
2017-05-27T18:49:02.257Z,27.77
2017-05-27T18:51:29.878Z,27.35
2017-05-27T18:53:57.461Z,28.68
2017-05-27T18:56:25.004Z,28.47
2017-05-27T18:58:52.580Z,29.38
2017-05-27T19:01:20.109Z,30.78
2017-05-27T19:03:47.698Z,31.78
2017-05-27T19:06:15.232Z,32.33
2017-05-27T19:08:43.626Z,30.82
2017-05-27T19:11:11.204Z,30.57
2017-05-27T19:13:38.754Z,31.10
2017-05-27T19:16:06.327Z,31.99
2017-05-27T19:18:33.898Z,32.23
2017-05-27T19:21:01.505Z,32.61
2017-05-27T19:23:29.041Z,32.94
2017-05-27T19:25:56.571Z,33.55
2017-05-27T19:28:24.141Z,33.56
2017-05-27T19:30:51.679Z,33.48
2017-05-27T19:33:19.240Z,33.75
2017-05-27T19:35:46.774Z,34.26
2017-05-27T19:38:14.320Z,34.61
2017-05-27T19:40:41.877Z,34.38
2017-05-27T19:43:09.438Z,34.95
2017-05-27T19:45:37.035Z,34.90
2017-05-27T19:48:04.936Z,36.00
2017-05-27T19:50:32.463Z,36.65
2017-05-27T19:53:00.007Z,37.26
2017-05-27T19:55:27.567Z,35.93
2017-05-27T19:57:55.093Z,35.92
2017-05-27T20:00:22.632Z,36.02
2017-05-27T20:02:50.168Z,36.02
2017-05-27T20:05:17.726Z,36.35
2017-05-27T20:07:45.252Z,36.58
2017-05-27T20:10:14.543Z,36.93
2017-05-27T20:12:42.108Z,37.20
2017-05-27T20:15:09.684Z,37.05
2017-05-27T20:17:37.328Z,37.27
2017-05-27T20:20:04.859Z,37.39
2017-05-27T20:22:32.424Z,37.40
2017-05-27T20:25:00.109Z,37.21
2017-05-27T20:27:27.695Z,37.24
2017-05-27T20:29:55.215Z,37.17
2017-05-27T20:32:22.771Z,37.53
2017-05-27T20:34:50.424Z,37.32
2017-05-27T20:37:18.021Z,37.42
2017-05-27T20:39:45.684Z,39.01
2017-05-27T20:42:13.220Z,39.45
2017-05-27T20:44:40.779Z,37.91
2017-05-27T20:47:08.308Z,38.13
2017-05-27T20:49:35.905Z,38.13
2017-05-27T20:52:03.467Z,38.37
2017-05-27T20:54:31.020Z,38.42
2017-05-27T20:56:58.576Z,38.55
2017-05-27T20:59:26.186Z,38.75
2017-05-27T21:01:53.795Z,39.16
2017-05-27T21:04:21.359Z,39.08
2017-05-27T21:06:48.971Z,39.32
2017-05-27T21:09:16.513Z,39.32
2017-05-27T21:11:44.163Z,39.43
2017-05-27T21:14:11.719Z,39.32
2017-05-27T21:16:39.328Z,39.69
2017-05-27T21:19:06.892Z,39.90
2017-05-27T21:21:34.429Z,39.75
2017-05-27T21:24:02.063Z,39.44
2017-05-27T21:26:29.747Z,39.77
2017-05-27T21:28:57.331Z,39.70
2017-05-27T21:31:24.873Z,40.02
2017-05-27T21:33:52.379Z,39.99
2017-05-27T21:36:20.015Z,39.99
2017-05-27T21:38:47.536Z,40.44
2017-05-27T21:41:15.057Z,40.63
2017-05-27T21:43:42.624Z,41.01
2017-05-27T21:46:10.141Z,41.21
2017-05-27T21:48:37.768Z,41.33
2017-05-27T21:51:05.293Z,41.49
2017-05-27T21:53:33.222Z,41.58
2017-05-27T21:56:00.860Z,41.72
2017-05-27T21:58:28.425Z,41.59
2017-05-27T22:00:55.959Z,41.85
2017-05-27T22:03:23.512Z,41.86
2017-05-27T22:05:51.101Z,41.99
2017-05-27T22:08:18.706Z,41.99
2017-05-27T22:10:46.684Z,42.21
2017-05-27T22:13:14.200Z,42.44
2017-05-27T22:15:41.729Z,42.79
2017-05-27T22:18:09.298Z,42.57
2017-05-27T22:20:36.832Z,42.53
2017-05-27T22:23:04.385Z,42.29
2017-05-27T22:25:31.980Z,42.38
2017-05-27T22:27:59.600Z,42.42
2017-05-27T22:30:27.121Z,42.41
2017-05-27T22:32:54.668Z,42.73
2017-05-27T22:35:22.245Z,42.90
2017-05-27T22:37:49.876Z,42.89
2017-05-27T22:40:17.460Z,43.04
2017-05-27T22:42:44.999Z,42.83
2017-05-27T22:45:12.635Z,43.04
2017-05-27T22:47:40.183Z,42.82
2017-05-27T22:50:07.724Z,42.85
2017-05-27T22:52:35.316Z,42.89
2017-05-27T22:55:02.851Z,43.11
2017-05-27T22:57:30.729Z,42.89
2017-05-27T22:59:58.314Z,43.22
2017-05-27T23:02:25.844Z,43.71
2017-05-27T23:04:53.409Z,43.41
2017-05-27T23:07:20.948Z,43.65
2017-05-27T23:09:48.496Z,43.96
2017-05-27T23:12:16.107Z,43.70
2017-05-27T23:14:43.692Z,43.86
2017-05-27T23:17:11.297Z,43.85
2017-05-27T23:19:38.867Z,43.89
2017-05-27T23:22:06.430Z,43.92
2017-05-27T23:24:34.009Z,44.37
2017-05-27T23:27:01.559Z,44.25
2017-05-27T23:29:29.079Z,44.41
2017-05-27T23:31:56.724Z,44.52
2017-05-27T23:34:24.284Z,44.51
2017-05-27T23:36:51.800Z,44.78
2017-05-27T23:39:19.343Z,44.62
2017-05-27T23:41:46.860Z,44.87
2017-05-27T23:44:14.727Z,45.02
2017-05-27T23:46:42.240Z,45.12
2017-05-27T23:49:09.829Z,45.09
2017-05-27T23:51:37.443Z,45.51
2017-05-27T23:54:04.968Z,45.48
2017-05-27T23:56:32.583Z,45.52
2017-05-27T23:59:00.104Z,45.76
